Leonie — PHLE — position and weather

sailwx.info

Track history (hours):
 
Tides and Currents Weather Stations Pressure Air Temp Water Temp Dewpoint Dewpoint Depression Visibility Wind Speed Wind Dir Waves Ship Positions

Leonie

Last reported at 2016-Jun-30 08:31 UTC. Time now 2016-Jun-30 08:47 UTC.
Position N 46°09' W 001°13'.

Length 90 m; draft 3.5 m.

Type: Cargo ship. MMSI: 244772000.

Date/timePositionNaut miles runAvg speedWind from/ knotsBaromVisibWave heightAir tempDewpointWater temp
2016-Jun-30 08:31N 46°09' W 001°13'0 0.0
2016-Jun-30 07:31N 46°09' W 001°13'0 0.0
2016-Jun-30 06:31N 46°09' W 001°13'0 0.0
2016-Jun-30 05:31N 46°09' W 001°13'0 0.0
2016-Jun-30 04:31N 46°09' W 001°13'0 0.0
2016-Jun-30 03:31N 46°09' W 001°13'0 0.0
2016-Jun-30 02:31N 46°09' W 001°13'0 0.0
2016-Jun-30 01:28N 46°09' W 001°13'0 0.0
2016-Jun-30 00:28N 46°09' W 001°13'0 0.0
2016-Jun-29 23:31N 46°09' W 001°13'0 0.0
2016-Jun-29 22:31N 46°09' W 001°13'0 0.0
2016-Jun-29 21:31N 46°09' W 001°13'0 0.0
2016-Jun-29 20:31N 46°09' W 001°13'0 0.0
2016-Jun-29 19:31N 46°09' W 001°13'0 0.4
2016-Jun-29 18:34N 46°10' W 001°13'5 4.5
2016-Jun-29 17:33N 46°05' W 001°14'0 0.0
2016-Jun-29 16:33N 46°05' W 001°14'0 0.0
2016-Jun-29 15:33N 46°05' W 001°14'0 0.0
2016-Jun-29 14:33N 46°05' W 001°14'0 0.1
2016-Jun-29 13:33N 46°05' W 001°14'0 0.0
2016-Jun-29 12:33N 46°05' W 001°14'0 0.0
2016-Jun-29 11:33N 46°05' W 001°14'0 0.0
2016-Jun-29 10:33N 46°05' W 001°14'0 0.0
2016-Jun-29 09:33N 46°05' W 001°14'0 0.0
2016-Jun-29 08:30N 46°05' W 001°14'0 0.0
2016-Jun-29 07:33N 46°05' W 001°14'0 0.0
2016-Jun-29 06:33N 46°05' W 001°14'0 0.0
2016-Jun-29 05:33N 46°05' W 001°14'0 0.1
2016-Jun-29 04:33N 46°05' W 001°14'0 0.0
2016-Jun-29 03:33N 46°05' W 001°14'0 0.0
2016-Jun-29 02:33N 46°05' W 001°14'0 0.1
2016-Jun-29 01:33N 46°05' W 001°14'0 0.1
2016-Jun-29 00:33N 46°05' W 001°14'0 0.0
2016-Jun-28 23:33N 46°05' W 001°14'0 0.0
2016-Jun-28 22:33N 46°05' W 001°14'0 0.0
2016-Jun-28 21:33N 46°05' W 001°14'0 0.0
2016-Jun-28 20:33N 46°05' W 001°14'2 1.8
2016-Jun-28 19:33N 46°05' W 001°16'1312.8
2016-Jun-28 18:33N 46°08' W 001°35'1211.9
2016-Jun-28 17:33N 46°13' W 001°50'1212.1
2016-Jun-28 16:33N 46°20' W 002°04'1211.8
2016-Jun-28 15:33N 46°27' W 002°18'1312.1
2016-Jun-28 14:30N 46°35' W 002°32'1211.9
2016-Jun-28 13:27N 46°42' W 002°47'1112.1
2016-Jun-28 12:33N 46°49' W 002°60'1211.9
2016-Jun-28 11:33N 46°56' W 003°14'1211.8
2016-Jun-28 10:33N 47°03' W 003°27'1211.6
2016-Jun-28 09:33N 47°10' W 003°41'1311.9
2016-Jun-28 08:29N 47°18' W 003°56'1211.9
2016-Jun-28 07:31N 47°25' W 004°10'1211.7
2016-Jun-28 06:31N 47°31' W 004°24'2110.1
2016-Jun-28 04:26N 47°20' W 003°58'1010.8
2016-Jun-28 03:33N 47°15' W 003°46'1110.7
2016-Jun-28 02:33N 47°09' W 003°33'1110.8
2016-Jun-28 01:33N 47°01' W 003°23'1010.4
2016-Jun-28 00:33N 46°54' W 003°11'1010.2
2016-Jun-27 23:33N 46°48' W 002°59'1010.2
2016-Jun-27 22:33N 46°42' W 002°47'1010.4
2016-Jun-27 21:33N 46°36' W 002°34'1010.3
2016-Jun-27 20:33N 46°30' W 002°23'1010.3
2016-Jun-27 19:33N 46°24' W 002°11'1010.2
2016-Jun-27 18:33N 46°17' W 001°59'1010.2
2016-Jun-27 17:33N 46°11' W 001°47'10 9.8
2016-Jun-27 16:33N 46°08' W 001°34'1010.4
2016-Jun-27 15:33N 46°06' W 001°19'5 5.1
2016-Jun-27 14:33N 46°10' W 001°13'0 0.2
2016-Jun-27 13:33N 46°09' W 001°13'0 0.0
2016-Jun-27 12:33N 46°09' W 001°13'0 0.0
2016-Jun-27 11:33N 46°09' W 001°13'0 0.0
2016-Jun-27 10:33N 46°09' W 001°13'0 0.0
2016-Jun-27 09:33N 46°09' W 001°13'0 0.0
2016-Jun-27 08:33N 46°09' W 001°13'0 0.0
2016-Jun-27 07:33N 46°09' W 001°13'0 0.0
2016-Jun-27 06:33N 46°09' W 001°13'0 0.0
2016-Jun-27 05:33N 46°09' W 001°13'0 0.0
2016-Jun-27 04:30N 46°09' W 001°13'0 0.0
2016-Jun-27 03:33N 46°09' W 001°13'0 0.0
2016-Jun-27 02:33N 46°09' W 001°13'0 0.0
2016-Jun-27 01:33N 46°09' W 001°13'0 0.0
2016-Jun-27 00:33N 46°09' W 001°13'0 0.0
2016-Jun-26 23:33N 46°09' W 001°13'0 0.0
2016-Jun-26 22:33N 46°09' W 001°13'0 0.0
2016-Jun-26 21:33N 46°09' W 001°13'0 0.0
2016-Jun-26 20:33N 46°09' W 001°13'0 0.0
2016-Jun-26 19:30N 46°09' W 001°13'0 0.0
2016-Jun-26 18:33N 46°09' W 001°13'0 0.0
2016-Jun-26 17:33N 46°09' W 001°13'0 0.0
2016-Jun-26 16:30N 46°09' W 001°13'0 0.0
2016-Jun-26 15:33N 46°09' W 001°13'0 0.0
2016-Jun-26 14:32N 46°09' W 001°13'0 0.0
2016-Jun-26 13:33N 46°09' W 001°13'0 0.0
2016-Jun-26 12:33N 46°09' W 001°13'0 0.0
2016-Jun-26 11:29N 46°09' W 001°13'0 0.0
2016-Jun-26 10:32N 46°09' W 001°13'0 0.0
2016-Jun-26 09:32N 46°09' W 001°13'0 0.0
2016-Jun-26 08:32N 46°09' W 001°13'0 0.0
2016-Jun-26 07:32N 46°09' W 001°13'0 0.0
2016-Jun-26 06:32N 46°09' W 001°13'0 0.0
2016-Jun-26 05:32N 46°09' W 001°13'0 0.0
2016-Jun-26 04:32N 46°09' W 001°13'0 0.0
2016-Jun-26 03:32N 46°09' W 001°13'0 0.0
2016-Jun-26 02:29N 46°09' W 001°13'0 0.0
2016-Jun-26 01:32N 46°09' W 001°13'0 0.0
2016-Jun-26 00:32N 46°09' W 001°13'0 0.0
2016-Jun-25 23:32N 46°09' W 001°13'0 0.0
2016-Jun-25 22:32N 46°09' W 001°13'0 0.0
2016-Jun-25 21:32N 46°09' W 001°13'0 0.0
2016-Jun-25 20:32N 46°09' W 001°13'0 0.0
2016-Jun-25 19:32N 46°09' W 001°13'0 0.0
2016-Jun-25 18:32N 46°09' W 001°13'0 0.0
2016-Jun-25 17:32N 46°09' W 001°13'0 0.0
2016-Jun-25 16:32N 46°09' W 001°13'0 0.0
2016-Jun-25 15:32N 46°09' W 001°13'0 0.0
2016-Jun-25 14:32N 46°09' W 001°13'0 0.0
2016-Jun-25 13:32N 46°09' W 001°13'0 0.0
2016-Jun-25 12:29N 46°09' W 001°13'0 0.0
2016-Jun-25 11:32N 46°09' W 001°13'0 0.0
2016-Jun-25 10:32N 46°09' W 001°13'0 0.0
2016-Jun-25 09:32N 46°09' W 001°13'0 0.0
2016-Jun-25 08:32N 46°09' W 001°13'0 0.0
2016-Jun-25 07:32N 46°09' W 001°13'0 0.0
2016-Jun-25 06:32N 46°09' W 001°13'0 0.0
2016-Jun-25 05:32N 46°09' W 001°13'0 0.0
2016-Jun-25 04:32N 46°09' W 001°13'0 0.0
2016-Jun-25 03:32N 46°09' W 001°13'0 0.0
2016-Jun-25 02:32N 46°09' W 001°13'0 0.0
2016-Jun-25 01:32N 46°09' W 001°13'0 0.0
2016-Jun-25 00:32N 46°09' W 001°13'0 0.0
2016-Jun-24 23:32N 46°09' W 001°13'0 0.0
2016-Jun-24 22:32N 46°09' W 001°13'0 0.0
2016-Jun-24 21:29N 46°09' W 001°13'0 0.0
2016-Jun-24 20:29N 46°09' W 001°13'0 0.0
2016-Jun-24 19:32N 46°09' W 001°13'0 0.0
2016-Jun-24 18:32N 46°09' W 001°13'0 0.0
2016-Jun-24 17:32N 46°09' W 001°13'1 1.5
2016-Jun-24 16:33N 46°09' W 001°15'3 3.4
2016-Jun-24 15:32N 46°05' W 001°14'0 0.0
2016-Jun-24 14:32N 46°05' W 001°14'0 0.0
2016-Jun-24 13:32N 46°05' W 001°14'0 0.0
2016-Jun-24 12:32N 46°05' W 001°14'0 0.1
2016-Jun-24 11:32N 46°05' W 001°14'0 0.0
2016-Jun-24 10:34N 46°05' W 001°14'7 7.1
2016-Jun-24 09:33N 46°06' W 001°24'10 9.8
2016-Jun-24 08:33N 46°08' W 001°39'10 9.6
2016-Jun-24 07:34N 46°12' W 001°51'3110.1
2016-Jun-24 04:32N 46°31' W 002°26'1010.2
2016-Jun-24 03:33N 46°37' W 002°38'10 9.5
2016-Jun-24 02:33N 46°43' W 002°48'1010.2
2016-Jun-24 01:33N 46°50' W 002°59'1010.0
2016-Jun-24 00:33N 46°55' W 003°11'10 9.9
2016-Jun-23 23:33N 47°02' W 003°23'10 9.8
2016-Jun-23 22:34N 47°07' W 003°34'10 9.9
2016-Jun-23 21:34N 47°14' W 003°46'1110.1
2016-Jun-23 20:30N 47°20' W 003°58'1010.5
2016-Jun-23 19:30N 47°27' W 004°10'1010.3
2016-Jun-23 18:30N 47°33' W 004°22'1010.2
2016-Jun-23 17:33N 47°39' W 004°33'1010.2
2016-Jun-23 16:34N 47°45' W 004°45'10 9.7
2016-Jun-23 15:33N 47°52' W 004°56'8 8.5
2016-Jun-23 14:33N 47°57' W 005°06'9 8.8
2016-Jun-23 13:33N 48°02' W 005°17'10 9.0
2016-Jun-23 12:27N 48°10' W 005°25'1311.0
2016-Jun-23 11:16N 48°23' W 005°25'911.1
2016-Jun-23 10:27N 48°32' W 005°23'1011.5
2016-Jun-23 09:33N 48°40' W 005°13'1010.1
2016-Jun-23 08:34N 48°47' W 005°01'11 9.1
2016-Jun-23 07:24N 48°53' W 004°49'17 8.3
2016-Jun-23 05:24N 49°04' W 004°30'6010.3
2016-Jun-22 23:32N 49°44' W 003°20'18 8.9
2016-Jun-22 21:33N 49°55' W 002°59'8 7.7
2016-Jun-22 20:33N 49°59' W 002°49'8 7.9
2016-Jun-22 19:29N 50°03' W 002°37'9111.5
2016-Jun-22 11:33N 50°29' W 000°20'9 8.9
2016-Jun-22 10:33N 50°32' W 000°07'9 8.1
2016-Jun-22 09:28N 50°34' E 000°07'7 8.2
2016-Jun-22 08:33N 50°36' E 000°18'4310.8
2016-Jun-22 04:33N 50°58' E 001°17'1010.0
2016-Jun-22 03:33N 51°05' E 001°28'8 8.1
2016-Jun-22 02:33N 51°10' E 001°38'7 7.5
2016-Jun-22 01:33N 51°16' E 001°46'8 8.2
2016-Jun-22 00:33N 51°23' E 001°51'9 9.2
2016-Jun-21 23:33N 51°31' E 001°59'1111.1
2016-Jun-21 22:33N 51°39' E 002°12'13610.3
2016-Jun-21 09:21N 53°23' E 004°34'9 9.3
2016-Jun-21 08:23N 53°29' E 004°46'7 8.9
2016-Jun-21 07:33N 53°32' E 004°57'17 8.7
2016-Jun-21 05:33N 53°38' E 005°25'10 9.4
2016-Jun-21 04:33N 53°41' E 005°40'1110.7
2016-Jun-21 03:33N 53°44' E 005°57'1111.2
2016-Jun-21 02:33N 53°48' E 006°15'1111.1
2016-Jun-21 01:33N 53°51' E 006°33'1110.8
2016-Jun-21 00:33N 53°53' E 006°51'1010.0
2016-Jun-20 23:33N 53°55' E 007°08'9 9.4
2016-Jun-20 22:34N 53°58' E 007°23'9 8.7
2016-Jun-20 21:33N 54°00' E 007°37'8 8.5
2016-Jun-20 20:34N 54°02' E 007°51'9 8.6
2016-Jun-20 19:33N 54°01' E 008°06'1010.4
2016-Jun-20 18:33N 53°60' E 008°24'1212.4
2016-Jun-20 17:33N 53°54' E 008°42'1312.7
2016-Jun-20 16:34N 53°52' E 009°03'4 4.1
2016-Jun-20 15:33N 53°54' E 009°10'0 0.0
2016-Jun-20 14:33N 53°54' E 009°10'0 0.3
2016-Jun-20 13:32N 53°54' E 009°09'0 0.0
2016-Jun-20 12:32N 53°54' E 009°09'5 4.8
2016-Jun-20 11:33N 53°57' E 009°15'9 8.4
2016-Jun-20 10:32N 54°06' E 009°20'  
Track history (hours):
 
Tides and Currents Weather Stations Pressure Air Temp Water Temp Dewpoint Dewpoint Depression Visibility Wind Speed Wind Dir Waves Ship Positions

Leonie

Last reported at 2016-Jun-30 08:31 UTC. Time now 2016-Jun-30 08:47 UTC.
Position N 46°09' W 001°13'.

Length 90 m; draft 3.5 m.

Type: Cargo ship. MMSI: 244772000.

Date/timePositionNaut miles runAvg speedWind from/ knotsBaromVisibWave heightAir tempDewpointWater temp
2016-Jun-30 08:31N 46°09' W 001°13'0 0.0
2016-Jun-30 07:31N 46°09' W 001°13'0 0.0
2016-Jun-30 06:31N 46°09' W 001°13'0 0.0
2016-Jun-30 05:31N 46°09' W 001°13'0 0.0
2016-Jun-30 04:31N 46°09' W 001°13'0 0.0
2016-Jun-30 03:31N 46°09' W 001°13'0 0.0
2016-Jun-30 02:31N 46°09' W 001°13'0 0.0
2016-Jun-30 01:28N 46°09' W 001°13'0 0.0
2016-Jun-30 00:28N 46°09' W 001°13'0 0.0
2016-Jun-29 23:31N 46°09' W 001°13'0 0.0
2016-Jun-29 22:31N 46°09' W 001°13'0 0.0
2016-Jun-29 21:31N 46°09' W 001°13'0 0.0
2016-Jun-29 20:31N 46°09' W 001°13'0 0.0
2016-Jun-29 19:31N 46°09' W 001°13'0 0.4
2016-Jun-29 18:34N 46°10' W 001°13'5 4.5
2016-Jun-29 17:33N 46°05' W 001°14'0 0.0
2016-Jun-29 16:33N 46°05' W 001°14'0 0.0
2016-Jun-29 15:33N 46°05' W 001°14'0 0.0
2016-Jun-29 14:33N 46°05' W 001°14'0 0.1
2016-Jun-29 13:33N 46°05' W 001°14'0 0.0
2016-Jun-29 12:33N 46°05' W 001°14'0 0.0
2016-Jun-29 11:33N 46°05' W 001°14'0 0.0
2016-Jun-29 10:33N 46°05' W 001°14'0 0.0
2016-Jun-29 09:33N 46°05' W 001°14'0 0.0
2016-Jun-29 08:30N 46°05' W 001°14'0 0.0
2016-Jun-29 07:33N 46°05' W 001°14'0 0.0
2016-Jun-29 06:33N 46°05' W 001°14'0 0.0
2016-Jun-29 05:33N 46°05' W 001°14'0 0.1
2016-Jun-29 04:33N 46°05' W 001°14'0 0.0
2016-Jun-29 03:33N 46°05' W 001°14'0 0.0
2016-Jun-29 02:33N 46°05' W 001°14'0 0.1
2016-Jun-29 01:33N 46°05' W 001°14'0 0.1
2016-Jun-29 00:33N 46°05' W 001°14'0 0.0
2016-Jun-28 23:33N 46°05' W 001°14'0 0.0
2016-Jun-28 22:33N 46°05' W 001°14'0 0.0
2016-Jun-28 21:33N 46°05' W 001°14'0 0.0
2016-Jun-28 20:33N 46°05' W 001°14'2 1.8
2016-Jun-28 19:33N 46°05' W 001°16'1312.8
2016-Jun-28 18:33N 46°08' W 001°35'1211.9
2016-Jun-28 17:33N 46°13' W 001°50'1212.1
2016-Jun-28 16:33N 46°20' W 002°04'1211.8
2016-Jun-28 15:33N 46°27' W 002°18'1312.1
2016-Jun-28 14:30N 46°35' W 002°32'1211.9
2016-Jun-28 13:27N 46°42' W 002°47'1112.1
2016-Jun-28 12:33N 46°49' W 002°60'1211.9
2016-Jun-28 11:33N 46°56' W 003°14'1211.8
2016-Jun-28 10:33N 47°03' W 003°27'1211.6
2016-Jun-28 09:33N 47°10' W 003°41'1311.9
2016-Jun-28 08:29N 47°18' W 003°56'1211.9
2016-Jun-28 07:31N 47°25' W 004°10'1211.7
2016-Jun-28 06:31N 47°31' W 004°24'2110.1
2016-Jun-28 04:26N 47°20' W 003°58'1010.8
2016-Jun-28 03:33N 47°15' W 003°46'1110.7
2016-Jun-28 02:33N 47°09' W 003°33'1110.8
2016-Jun-28 01:33N 47°01' W 003°23'1010.4
2016-Jun-28 00:33N 46°54' W 003°11'1010.2
2016-Jun-27 23:33N 46°48' W 002°59'1010.2
2016-Jun-27 22:33N 46°42' W 002°47'1010.4
2016-Jun-27 21:33N 46°36' W 002°34'1010.3
2016-Jun-27 20:33N 46°30' W 002°23'1010.3
2016-Jun-27 19:33N 46°24' W 002°11'1010.2
2016-Jun-27 18:33N 46°17' W 001°59'1010.2
2016-Jun-27 17:33N 46°11' W 001°47'10 9.8
2016-Jun-27 16:33N 46°08' W 001°34'1010.4
2016-Jun-27 15:33N 46°06' W 001°19'5 5.1
2016-Jun-27 14:33N 46°10' W 001°13'0 0.2
2016-Jun-27 13:33N 46°09' W 001°13'0 0.0
2016-Jun-27 12:33N 46°09' W 001°13'0 0.0
2016-Jun-27 11:33N 46°09' W 001°13'0 0.0
2016-Jun-27 10:33N 46°09' W 001°13'0 0.0
2016-Jun-27 09:33N 46°09' W 001°13'0 0.0
2016-Jun-27 08:33N 46°09' W 001°13'0 0.0
2016-Jun-27 07:33N 46°09' W 001°13'0 0.0
2016-Jun-27 06:33N 46°09' W 001°13'0 0.0
2016-Jun-27 05:33N 46°09' W 001°13'0 0.0
2016-Jun-27 04:30N 46°09' W 001°13'0 0.0
2016-Jun-27 03:33N 46°09' W 001°13'0 0.0
2016-Jun-27 02:33N 46°09' W 001°13'0 0.0
2016-Jun-27 01:33N 46°09' W 001°13'0 0.0
2016-Jun-27 00:33N 46°09' W 001°13'0 0.0
2016-Jun-26 23:33N 46°09' W 001°13'0 0.0
2016-Jun-26 22:33N 46°09' W 001°13'0 0.0
2016-Jun-26 21:33N 46°09' W 001°13'0 0.0
2016-Jun-26 20:33N 46°09' W 001°13'0 0.0
2016-Jun-26 19:30N 46°09' W 001°13'0 0.0
2016-Jun-26 18:33N 46°09' W 001°13'0 0.0
2016-Jun-26 17:33N 46°09' W 001°13'0 0.0
2016-Jun-26 16:30N 46°09' W 001°13'0 0.0
2016-Jun-26 15:33N 46°09' W 001°13'0 0.0
2016-Jun-26 14:32N 46°09' W 001°13'0 0.0
2016-Jun-26 13:33N 46°09' W 001°13'0 0.0
2016-Jun-26 12:33N 46°09' W 001°13'0 0.0
2016-Jun-26 11:29N 46°09' W 001°13'0 0.0
2016-Jun-26 10:32N 46°09' W 001°13'0 0.0
2016-Jun-26 09:32N 46°09' W 001°13'0 0.0
2016-Jun-26 08:32N 46°09' W 001°13'0 0.0
2016-Jun-26 07:32N 46°09' W 001°13'0 0.0
2016-Jun-26 06:32N 46°09' W 001°13'0 0.0
2016-Jun-26 05:32N 46°09' W 001°13'0 0.0
2016-Jun-26 04:32N 46°09' W 001°13'0 0.0
2016-Jun-26 03:32N 46°09' W 001°13'0 0.0
2016-Jun-26 02:29N 46°09' W 001°13'0 0.0
2016-Jun-26 01:32N 46°09' W 001°13'0 0.0
2016-Jun-26 00:32N 46°09' W 001°13'0 0.0
2016-Jun-25 23:32N 46°09' W 001°13'0 0.0
2016-Jun-25 22:32N 46°09' W 001°13'0 0.0
2016-Jun-25 21:32N 46°09' W 001°13'0 0.0
2016-Jun-25 20:32N 46°09' W 001°13'0 0.0
2016-Jun-25 19:32N 46°09' W 001°13'0 0.0
2016-Jun-25 18:32N 46°09' W 001°13'0 0.0
2016-Jun-25 17:32N 46°09' W 001°13'0 0.0
2016-Jun-25 16:32N 46°09' W 001°13'0 0.0
2016-Jun-25 15:32N 46°09' W 001°13'0 0.0
2016-Jun-25 14:32N 46°09' W 001°13'0 0.0
2016-Jun-25 13:32N 46°09' W 001°13'0 0.0
2016-Jun-25 12:29N 46°09' W 001°13'0 0.0
2016-Jun-25 11:32N 46°09' W 001°13'0 0.0
2016-Jun-25 10:32N 46°09' W 001°13'0 0.0
2016-Jun-25 09:32N 46°09' W 001°13'0 0.0
2016-Jun-25 08:32N 46°09' W 001°13'0 0.0
2016-Jun-25 07:32N 46°09' W 001°13'0 0.0
2016-Jun-25 06:32N 46°09' W 001°13'0 0.0
2016-Jun-25 05:32N 46°09' W 001°13'0 0.0
2016-Jun-25 04:32N 46°09' W 001°13'0 0.0
2016-Jun-25 03:32N 46°09' W 001°13'0 0.0
2016-Jun-25 02:32N 46°09' W 001°13'0 0.0
2016-Jun-25 01:32N 46°09' W 001°13'0 0.0
2016-Jun-25 00:32N 46°09' W 001°13'0 0.0
2016-Jun-24 23:32N 46°09' W 001°13'0 0.0
2016-Jun-24 22:32N 46°09' W 001°13'0 0.0
2016-Jun-24 21:29N 46°09' W 001°13'0 0.0
2016-Jun-24 20:29N 46°09' W 001°13'0 0.0
2016-Jun-24 19:32N 46°09' W 001°13'0 0.0
2016-Jun-24 18:32N 46°09' W 001°13'0 0.0
2016-Jun-24 17:32N 46°09' W 001°13'1 1.5
2016-Jun-24 16:33N 46°09' W 001°15'3 3.4
2016-Jun-24 15:32N 46°05' W 001°14'0 0.0
2016-Jun-24 14:32N 46°05' W 001°14'0 0.0
2016-Jun-24 13:32N 46°05' W 001°14'0 0.0
2016-Jun-24 12:32N 46°05' W 001°14'0 0.1
2016-Jun-24 11:32N 46°05' W 001°14'0 0.0
2016-Jun-24 10:34N 46°05' W 001°14'7 7.1
2016-Jun-24 09:33N 46°06' W 001°24'10 9.8
2016-Jun-24 08:33N 46°08' W 001°39'10 9.6
2016-Jun-24 07:34N 46°12' W 001°51'3110.1
2016-Jun-24 04:32N 46°31' W 002°26'1010.2
2016-Jun-24 03:33N 46°37' W 002°38'10 9.5
2016-Jun-24 02:33N 46°43' W 002°48'1010.2
2016-Jun-24 01:33N 46°50' W 002°59'1010.0
2016-Jun-24 00:33N 46°55' W 003°11'10 9.9
2016-Jun-23 23:33N 47°02' W 003°23'10 9.8
2016-Jun-23 22:34N 47°07' W 003°34'10 9.9
2016-Jun-23 21:34N 47°14' W 003°46'1110.1
2016-Jun-23 20:30N 47°20' W 003°58'1010.5
2016-Jun-23 19:30N 47°27' W 004°10'1010.3
2016-Jun-23 18:30N 47°33' W 004°22'1010.2
2016-Jun-23 17:33N 47°39' W 004°33'1010.2
2016-Jun-23 16:34N 47°45' W 004°45'10 9.7
2016-Jun-23 15:33N 47°52' W 004°56'8 8.5
2016-Jun-23 14:33N 47°57' W 005°06'9 8.8
2016-Jun-23 13:33N 48°02' W 005°17'10 9.0
2016-Jun-23 12:27N 48°10' W 005°25'1311.0
2016-Jun-23 11:16N 48°23' W 005°25'911.1
2016-Jun-23 10:27N 48°32' W 005°23'1011.5
2016-Jun-23 09:33N 48°40' W 005°13'1010.1
2016-Jun-23 08:34N 48°47' W 005°01'11 9.1
2016-Jun-23 07:24N 48°53' W 004°49'17 8.3
2016-Jun-23 05:24N 49°04' W 004°30'6010.3
2016-Jun-22 23:32N 49°44' W 003°20'18 8.9
2016-Jun-22 21:33N 49°55' W 002°59'8 7.7
2016-Jun-22 20:33N 49°59' W 002°49'8 7.9
2016-Jun-22 19:29N 50°03' W 002°37'9111.5
2016-Jun-22 11:33N 50°29' W 000°20'9 8.9
2016-Jun-22 10:33N 50°32' W 000°07'9 8.1
2016-Jun-22 09:28N 50°34' E 000°07'7 8.2
2016-Jun-22 08:33N 50°36' E 000°18'4310.8
2016-Jun-22 04:33N 50°58' E 001°17'1010.0
2016-Jun-22 03:33N 51°05' E 001°28'8 8.1
2016-Jun-22 02:33N 51°10' E 001°38'7 7.5
2016-Jun-22 01:33N 51°16' E 001°46'8 8.2
2016-Jun-22 00:33N 51°23' E 001°51'9 9.2
2016-Jun-21 23:33N 51°31' E 001°59'1111.1
2016-Jun-21 22:33N 51°39' E 002°12'13610.3
2016-Jun-21 09:21N 53°23' E 004°34'9 9.3
2016-Jun-21 08:23N 53°29' E 004°46'7 8.9
2016-Jun-21 07:33N 53°32' E 004°57'17 8.7
2016-Jun-21 05:33N 53°38' E 005°25'10 9.4
2016-Jun-21 04:33N 53°41' E 005°40'1110.7
2016-Jun-21 03:33N 53°44' E 005°57'1111.2
2016-Jun-21 02:33N 53°48' E 006°15'1111.1
2016-Jun-21 01:33N 53°51' E 006°33'1110.8
2016-Jun-21 00:33N 53°53' E 006°51'1010.0
2016-Jun-20 23:33N 53°55' E 007°08'9 9.4
2016-Jun-20 22:34N 53°58' E 007°23'9 8.7
2016-Jun-20 21:33N 54°00' E 007°37'8 8.5
2016-Jun-20 20:34N 54°02' E 007°51'9 8.6
2016-Jun-20 19:33N 54°01' E 008°06'1010.4
2016-Jun-20 18:33N 53°60' E 008°24'1212.4
2016-Jun-20 17:33N 53°54' E 008°42'1312.7
2016-Jun-20 16:34N 53°52' E 009°03'4 4.1
2016-Jun-20 15:33N 53°54' E 009°10'0 0.0
2016-Jun-20 14:33N 53°54' E 009°10'0 0.3
2016-Jun-20 13:32N 53°54' E 009°09'0 0.0
2016-Jun-20 12:32N 53°54' E 009°09'5 4.8
2016-Jun-20 11:33N 53°57' E 009°15'9 8.4
2016-Jun-20 10:32N 54°06' E 009°20'  

Dump ship's entire track history